<?xml version="1.0" encoding="UTF-8" standalone="no" ?>
<gpx xmlns="http://www.topografix.com/GPX/1/1" xmlns:xsi="http://www.w3.org/2001/XMLSchema-instance" xsi:schemaLocation="http://www.topografix.com/GPX/1/1 http://www.topografix.com/GPX/1/1/gpx.xsd" version="1.1" creator="VisuGPX - https://www.visugpx.com">
  <metadata>
    <name>tracé du 27/12/2015</name>
    <desc><![CDATA[forêt de vibraye]]></desc>
  </metadata>
  <trk>
    <name><![CDATA[27-DEC-15 04:38:55 PM]]></name>
    <trkseg>
      <trkpt lat="48.04664" lon="0.72316">
        <ele>206.34</ele>
        <time>2015-12-27T13:49:21Z</time>
      </trkpt>
      <trkpt lat="48.043" lon="0.71905">
        <ele>176.06</ele>
        <time>2015-12-27T13:56:20Z</time>
      </trkpt>
      <trkpt lat="48.04123" lon="0.71706">
        <ele>173.66</ele>
        <time>2015-12-27T13:59:24Z</time>
      </trkpt>
      <trkpt lat="48.03954" lon="0.71525">
        <ele>183.75</ele>
        <time>2015-12-27T14:02:26Z</time>
      </trkpt>
      <trkpt lat="48.03909" lon="0.71483">
        <ele>187.59</ele>
        <time>2015-12-27T14:04:23Z</time>
      </trkpt>
      <trkpt lat="48.03846" lon="0.71412">
        <ele>179.9</ele>
        <time>2015-12-27T14:05:44Z</time>
      </trkpt>
      <trkpt lat="48.03763" lon="0.71322">
        <ele>179.9</ele>
        <time>2015-12-27T14:07:10Z</time>
      </trkpt>
      <trkpt lat="48.03682" lon="0.71235">
        <ele>170.77</ele>
        <time>2015-12-27T14:08:42Z</time>
      </trkpt>
      <trkpt lat="48.036" lon="0.71144">
        <ele>177.5</ele>
        <time>2015-12-27T14:10:17Z</time>
      </trkpt>
      <trkpt lat="48.0351" lon="0.71046">
        <ele>173.17</ele>
        <time>2015-12-27T14:11:58Z</time>
      </trkpt>
      <trkpt lat="48.03431" lon="0.70957">
        <ele>172.69</ele>
        <time>2015-12-27T14:13:20Z</time>
      </trkpt>
      <trkpt lat="48.03365" lon="0.70886">
        <ele>174.62</ele>
        <time>2015-12-27T14:14:45Z</time>
      </trkpt>
      <trkpt lat="48.03287" lon="0.708">
        <ele>174.14</ele>
        <time>2015-12-27T14:16:14Z</time>
      </trkpt>
      <trkpt lat="48.03206" lon="0.70708">
        <ele>174.14</ele>
        <time>2015-12-27T14:17:45Z</time>
      </trkpt>
      <trkpt lat="48.03132" lon="0.70627">
        <ele>180.87</ele>
        <time>2015-12-27T14:19:06Z</time>
      </trkpt>
      <trkpt lat="48.03038" lon="0.70522">
        <ele>189.04</ele>
        <time>2015-12-27T14:21:05Z</time>
      </trkpt>
      <trkpt lat="48.02937" lon="0.70409">
        <ele>190</ele>
        <time>2015-12-27T14:22:50Z</time>
      </trkpt>
      <trkpt lat="48.02845" lon="0.70309">
        <ele>187.59</ele>
        <time>2015-12-27T14:24:33Z</time>
      </trkpt>
      <trkpt lat="48.02752" lon="0.70209">
        <ele>185.67</ele>
        <time>2015-12-27T14:26:17Z</time>
      </trkpt>
      <trkpt lat="48.02678" lon="0.70311">
        <ele>188.56</ele>
        <time>2015-12-27T14:30:16Z</time>
      </trkpt>
      <trkpt lat="48.02616" lon="0.70406">
        <ele>199.13</ele>
        <time>2015-12-27T14:31:37Z</time>
      </trkpt>
      <trkpt lat="48.02534" lon="0.70524">
        <ele>194.8</ele>
        <time>2015-12-27T14:33:15Z</time>
      </trkpt>
      <trkpt lat="48.02462" lon="0.70627">
        <ele>200.09</ele>
        <time>2015-12-27T14:34:44Z</time>
      </trkpt>
      <trkpt lat="48.02385" lon="0.70722">
        <ele>182.31</ele>
        <time>2015-12-27T14:36:13Z</time>
      </trkpt>
      <trkpt lat="48.02319" lon="0.70809">
        <ele>168.37</ele>
        <time>2015-12-27T14:37:29Z</time>
      </trkpt>
      <trkpt lat="48.02248" lon="0.70885">
        <ele>169.81</ele>
        <time>2015-12-27T14:38:49Z</time>
      </trkpt>
      <trkpt lat="48.02145" lon="0.70982">
        <ele>168.37</ele>
        <time>2015-12-27T14:40:38Z</time>
      </trkpt>
      <trkpt lat="48.02042" lon="0.7106">
        <ele>166.93</ele>
        <time>2015-12-27T14:42:18Z</time>
      </trkpt>
      <trkpt lat="48.01971" lon="0.71114">
        <ele>167.89</ele>
        <time>2015-12-27T14:46:55Z</time>
      </trkpt>
      <trkpt lat="48.02062" lon="0.71176">
        <ele>159.72</ele>
        <time>2015-12-27T14:48:35Z</time>
      </trkpt>
      <trkpt lat="48.02187" lon="0.71267">
        <ele>169.81</ele>
        <time>2015-12-27T14:52:43Z</time>
      </trkpt>
      <trkpt lat="48.02363" lon="0.71386">
        <ele>151.54</ele>
        <time>2015-12-27T14:55:29Z</time>
      </trkpt>
      <trkpt lat="48.02512" lon="0.71498">
        <ele>162.12</ele>
        <time>2015-12-27T14:58:10Z</time>
      </trkpt>
      <trkpt lat="48.02611" lon="0.71577">
        <ele>168.85</ele>
        <time>2015-12-27T14:59:54Z</time>
      </trkpt>
      <trkpt lat="48.02689" lon="0.71694">
        <ele>181.35</ele>
        <time>2015-12-27T15:01:47Z</time>
      </trkpt>
      <trkpt lat="48.02807" lon="0.71709">
        <ele>175.58</ele>
        <time>2015-12-27T15:03:36Z</time>
      </trkpt>
      <trkpt lat="48.0291" lon="0.71708">
        <ele>174.14</ele>
        <time>2015-12-27T15:05:06Z</time>
      </trkpt>
      <trkpt lat="48.03035" lon="0.71703">
        <ele>181.83</ele>
        <time>2015-12-27T15:07:02Z</time>
      </trkpt>
      <trkpt lat="48.03153" lon="0.71696">
        <ele>169.33</ele>
        <time>2015-12-27T15:09:40Z</time>
      </trkpt>
      <trkpt lat="48.03247" lon="0.71704">
        <ele>170.29</ele>
        <time>2015-12-27T15:11:35Z</time>
      </trkpt>
      <trkpt lat="48.03382" lon="0.71713">
        <ele>183.27</ele>
        <time>2015-12-27T15:13:55Z</time>
      </trkpt>
      <trkpt lat="48.03474" lon="0.71782">
        <ele>170.29</ele>
        <time>2015-12-27T15:15:33Z</time>
      </trkpt>
      <trkpt lat="48.03548" lon="0.71899">
        <ele>171.25</ele>
        <time>2015-12-27T15:17:14Z</time>
      </trkpt>
      <trkpt lat="48.03648" lon="0.71977">
        <ele>178.46</ele>
        <time>2015-12-27T15:19:15Z</time>
      </trkpt>
      <trkpt lat="48.03746" lon="0.72064">
        <ele>181.35</ele>
        <time>2015-12-27T15:21:48Z</time>
      </trkpt>
      <trkpt lat="48.03825" lon="0.72164">
        <ele>177.98</ele>
        <time>2015-12-27T15:23:23Z</time>
      </trkpt>
      <trkpt lat="48.03915" lon="0.72227">
        <ele>172.69</ele>
        <time>2015-12-27T15:24:58Z</time>
      </trkpt>
      <trkpt lat="48.04019" lon="0.72248">
        <ele>185.19</ele>
        <time>2015-12-27T15:26:31Z</time>
      </trkpt>
      <trkpt lat="48.0412" lon="0.72216">
        <ele>183.75</ele>
        <time>2015-12-27T15:28:46Z</time>
      </trkpt>
      <trkpt lat="48.04228" lon="0.72255">
        <ele>186.63</ele>
        <time>2015-12-27T15:30:24Z</time>
      </trkpt>
      <trkpt lat="48.04327" lon="0.72282">
        <ele>180.38</ele>
        <time>2015-12-27T15:31:52Z</time>
      </trkpt>
      <trkpt lat="48.0442" lon="0.72312">
        <ele>178.94</ele>
        <time>2015-12-27T15:33:18Z</time>
      </trkpt>
      <trkpt lat="48.04501" lon="0.72359">
        <ele>188.56</ele>
        <time>2015-12-27T15:34:46Z</time>
      </trkpt>
      <trkpt lat="48.04607" lon="0.7236">
        <ele>187.11</ele>
        <time>2015-12-27T15:36:21Z</time>
      </trkpt>
    </trkseg>
  </trk>
</gpx>